createdAt,value
2022-10-18T00:02:20.005Z,93.91
2022-10-18T00:04:47.509Z,93.77
2022-10-18T00:07:14.376Z,93.76
2022-10-18T00:09:40.866Z,93.39
2022-10-18T00:12:07.840Z,93.64
2022-10-18T00:14:34.163Z,93.47
2022-10-18T00:17:00.540Z,93.43
2022-10-18T00:19:29.208Z,93.58
2022-10-18T00:21:56.176Z,93.28
2022-10-18T00:24:22.564Z,93.35
2022-10-18T00:26:48.889Z,93.53
2022-10-18T00:29:16.569Z,93.50
2022-10-18T00:31:44.310Z,93.68
2022-10-18T00:34:15.804Z,93.54
2022-10-18T00:36:43.808Z,93.73
2022-10-18T00:39:15.565Z,93.74
2022-10-18T00:41:42.356Z,93.76
2022-10-18T00:44:11.592Z,93.63
2022-10-18T00:46:49.509Z,93.59
2022-10-18T00:49:19.191Z,93.43
2022-10-18T00:51:56.135Z,93.58
2022-10-18T00:54:23.630Z,93.47
2022-10-18T00:56:50.789Z,93.25
2022-10-18T00:59:18.566Z,93.35
2022-10-18T01:01:45.509Z,93.12
2022-10-18T01:04:14.798Z,93.13
2022-10-18T01:07:10.111Z,92.79
2022-10-18T01:09:45.563Z,92.92
2022-10-18T01:12:17.963Z,92.90
2022-10-18T01:14:57.575Z,92.66
2022-10-18T01:17:44.058Z,92.64
2022-10-18T01:20:22.469Z,92.81
2022-10-18T01:22:57.309Z,92.68
2022-10-18T01:25:35.800Z,92.41
2022-10-18T01:28:19.946Z,92.02
2022-10-18T01:30:51.914Z,92.04
2022-10-18T01:33:29.273Z,91.96
2022-10-18T01:36:17.112Z,91.82
2022-10-18T01:38:44.910Z,91.56
2022-10-18T01:41:15.748Z,91.49
2022-10-18T01:43:46.271Z,91.46
2022-10-18T01:46:17.417Z,91.80
2022-10-18T01:48:43.862Z,91.93
2022-10-18T01:51:11.014Z,91.72
2022-10-18T01:53:37.387Z,91.89
2022-10-18T01:56:41.792Z,92.17
2022-10-18T01:59:45.223Z,92.17
2022-10-18T02:02:28.333Z,92.30
2022-10-18T02:05:02.021Z,92.28
2022-10-18T02:08:00.343Z,92.27
2022-10-18T02:10:46.965Z,92.22
2022-10-18T02:13:18.158Z,92.14
2022-10-18T02:15:48.347Z,92.10
2022-10-18T02:18:22.970Z,91.90
2022-10-18T02:20:54.902Z,91.69
2022-10-18T02:23:22.967Z,91.35
2022-10-18T02:25:50.156Z,91.68
2022-10-18T02:28:16.656Z,91.53
2022-10-18T02:31:03.712Z,91.76
2022-10-18T02:33:58.028Z,91.62
2022-10-18T02:36:36.938Z,91.41
2022-10-18T02:39:18.074Z,91.87
2022-10-18T02:41:44.492Z,92.22
2022-10-18T02:44:11.130Z,92.47
2022-10-18T02:46:40.583Z,92.74
2022-10-18T02:49:06.995Z,92.88
2022-10-18T02:51:33.445Z,92.81
2022-10-18T02:53:59.841Z,92.69
2022-10-18T02:56:26.188Z,92.82
2022-10-18T02:58:52.588Z,92.78
2022-10-18T03:01:18.979Z,92.92
2022-10-18T03:03:45.509Z,92.88
2022-10-18T03:06:11.868Z,92.79
2022-10-18T03:08:38.485Z,92.59
2022-10-18T03:11:04.980Z,92.53
2022-10-18T03:13:31.354Z,92.45
2022-10-18T03:15:57.716Z,92.25
2022-10-18T03:18:24.057Z,91.96
2022-10-18T03:20:50.456Z,91.90
2022-10-18T03:23:16.798Z,91.90
2022-10-18T03:25:45.716Z,91.81
2022-10-18T03:28:13.051Z,91.79
2022-10-18T03:30:39.391Z,91.80
2022-10-18T03:33:06.681Z,91.81
2022-10-18T03:35:33.101Z,91.98
2022-10-18T03:37:59.503Z,91.77
2022-10-18T03:40:25.982Z,91.61
2022-10-18T03:42:52.362Z,91.42
2022-10-18T03:45:18.702Z,91.44
2022-10-18T03:47:45.193Z,91.67
2022-10-18T03:50:11.513Z,91.63
2022-10-18T03:52:37.906Z,91.72
2022-10-18T03:55:04.574Z,91.78
2022-10-18T03:57:30.957Z,91.64
2022-10-18T03:59:57.288Z,91.75
2022-10-18T04:02:24.014Z,91.68
2022-10-18T04:04:50.416Z,92.06
2022-10-18T04:07:19.397Z,91.82
2022-10-18T04:09:45.730Z,91.76
2022-10-18T04:12:12.113Z,91.77
2022-10-18T04:14:41.203Z,91.55
2022-10-18T04:17:07.843Z,91.73
2022-10-18T04:19:34.147Z,91.86
2022-10-18T04:22:00.468Z,91.84
2022-10-18T04:24:26.786Z,91.99
2022-10-18T04:26:53.142Z,92.01
2022-10-18T04:29:19.477Z,91.84
2022-10-18T04:31:46.056Z,92.19
2022-10-18T04:34:12.393Z,92.08
2022-10-18T04:36:38.923Z,92.34
2022-10-18T04:39:05.277Z,92.61
2022-10-18T04:41:31.621Z,92.86
2022-10-18T04:43:57.948Z,92.73
2022-10-18T04:46:26.373Z,92.75
2022-10-18T04:48:52.698Z,92.83
2022-10-18T04:51:19.122Z,92.42
2022-10-18T04:53:46.601Z,93.03
2022-10-18T04:56:12.970Z,93.10
2022-10-18T04:58:39.518Z,93.36
2022-10-18T05:01:07.033Z,93.22
2022-10-18T05:03:33.888Z,93.27
2022-10-18T05:06:03.092Z,93.56
2022-10-18T05:08:33.041Z,93.58
2022-10-18T05:11:00.125Z,93.60
2022-10-18T05:13:26.957Z,93.60
2022-10-18T05:15:53.882Z,93.65
2022-10-18T05:18:20.242Z,93.64
2022-10-18T05:20:47.218Z,93.56
2022-10-18T05:23:13.719Z,93.61
2022-10-18T05:25:42.358Z,93.90
2022-10-18T05:28:34.625Z,93.71
2022-10-18T05:30:55.603Z,93.66
2022-10-18T05:33:21.953Z,93.77
2022-10-18T05:35:53.941Z,93.50
2022-10-18T05:38:20.505Z,93.39
2022-10-18T05:40:46.838Z,93.51
2022-10-18T05:43:13.167Z,93.40
2022-10-18T05:45:39.478Z,93.34
2022-10-18T05:48:07.510Z,93.31
2022-10-18T05:50:39.531Z,93.40
2022-10-18T05:53:12.037Z,93.43
2022-10-18T05:55:39.123Z,93.37
2022-10-18T05:58:05.486Z,93.24
2022-10-18T06:00:31.873Z,93.19
2022-10-18T06:03:00.285Z,93.14
2022-10-18T06:05:27.418Z,93.12
2022-10-18T06:07:53.875Z,93.00
2022-10-18T06:10:20.223Z,93.04
2022-10-18T06:12:46.612Z,93.10
2022-10-18T06:15:13.205Z,92.84
2022-10-18T06:17:39.677Z,92.53
2022-10-18T06:20:07.418Z,92.98
2022-10-18T06:22:33.936Z,92.80
2022-10-18T06:25:00.333Z,93.02
2022-10-18T06:27:26.737Z,92.47
2022-10-18T06:29:55.820Z,92.32
2022-10-18T06:32:22.173Z,92.29
2022-10-18T06:34:48.579Z,92.02
2022-10-18T06:37:14.928Z,91.82
2022-10-18T06:39:41.378Z,91.75
2022-10-18T06:42:07.730Z,91.37
2022-10-18T06:44:34.038Z,91.18
2022-10-18T06:47:00.447Z,91.37
2022-10-18T06:49:26.841Z,91.18
2022-10-18T06:51:53.704Z,91.00
2022-10-18T06:54:20.146Z,90.78
2022-10-18T06:56:46.703Z,91.09
2022-10-18T06:59:13.302Z,91.15
2022-10-18T07:01:39.694Z,90.96
2022-10-18T07:04:06.202Z,90.97
2022-10-18T07:06:32.524Z,90.90
2022-10-18T07:08:59.033Z,90.90
2022-10-18T07:11:26.724Z,90.90
2022-10-18T07:13:54.914Z,91.20
2022-10-18T07:16:21.571Z,91.41
2022-10-18T07:18:50.716Z,91.16
2022-10-18T07:21:22.590Z,90.94
2022-10-18T07:23:50.598Z,91.09
2022-10-18T07:26:18.158Z,90.80
2022-10-18T07:28:46.496Z,90.92
2022-10-18T07:31:13.668Z,90.84
2022-10-18T07:33:40.025Z,90.98
2022-10-18T07:36:08.834Z,90.96
2022-10-18T07:38:36.179Z,90.93
2022-10-18T07:41:07.567Z,91.16
2022-10-18T07:43:34.921Z,91.32
2022-10-18T07:46:03.252Z,91.37
2022-10-18T07:48:30.315Z,91.48
2022-10-18T07:51:03.959Z,91.64
2022-10-18T07:53:30.616Z,91.83
2022-10-18T07:56:20.626Z,92.01
2022-10-18T07:58:51.190Z,92.17
2022-10-18T08:01:18.426Z,92.36
2022-10-18T08:03:44.817Z,92.37
2022-10-18T08:06:16.318Z,92.49
2022-10-18T08:08:42.825Z,92.47
2022-10-18T08:11:12.770Z,92.62
2022-10-18T08:13:39.170Z,92.82
2022-10-18T08:16:18.114Z,92.84
2022-10-18T08:18:44.725Z,93.26
2022-10-18T08:21:13.377Z,93.08
2022-10-18T08:23:40.060Z,93.10
2022-10-18T08:26:09.921Z,93.16
2022-10-18T08:28:37.034Z,93.28
2022-10-18T08:31:08.705Z,93.71
2022-10-18T08:33:36.135Z,93.79
2022-10-18T08:36:11.024Z,93.58
2022-10-18T08:38:40.199Z,93.55
2022-10-18T08:41:27.208Z,93.22
2022-10-18T08:44:07.188Z,92.68
2022-10-18T08:46:36.307Z,92.50
2022-10-18T08:49:04.201Z,92.19
2022-10-18T08:51:39.846Z,91.92
2022-10-18T08:54:15.040Z,91.47
2022-10-18T08:56:45.347Z,91.26
2022-10-18T08:59:12.981Z,91.08
2022-10-18T09:01:55.380Z,91.10
2022-10-18T09:04:27.801Z,90.94
2022-10-18T09:07:25.530Z,88.90
2022-10-18T09:10:00.298Z,89.04
2022-10-18T09:12:54.519Z,86.51
2022-10-18T09:15:35.156Z,82.81
2022-10-18T09:18:10.144Z,78.29
2022-10-18T09:20:57.243Z,70.81
2022-10-18T09:23:40.522Z,67.46
2022-10-18T09:26:20.245Z,62.74
2022-10-18T09:28:49.415Z,57.59
2022-10-18T09:31:21.964Z,54.44
2022-10-18T09:33:56.287Z,53.48
2022-10-18T09:36:33.569Z,51.36
2022-10-18T09:39:13.144Z,48.53
2022-10-18T09:41:45.384Z,45.81
2022-10-18T09:44:26.927Z,42.70
2022-10-18T09:46:59.763Z,42.91
2022-10-18T09:49:42.146Z,41.53
2022-10-18T09:52:15.988Z,38.63
2022-10-18T09:54:49.609Z,38.35
2022-10-18T09:57:36.350Z,38.18
2022-10-18T10:00:05.212Z,37.59
2022-10-18T10:02:31.598Z,36.44
2022-10-18T10:04:58.192Z,36.59
2022-10-18T10:07:28.656Z,35.63
2022-10-18T10:10:15.927Z,34.73
2022-10-18T10:12:42.490Z,34.87
2022-10-18T10:15:18.958Z,34.14
2022-10-18T10:17:55.224Z,34.03
2022-10-18T10:20:23.991Z,32.64
2022-10-18T10:22:55.161Z,31.64
2022-10-18T10:25:35.289Z,32.12
2022-10-18T10:28:18.269Z,31.29
2022-10-18T10:30:44.800Z,31.74
2022-10-18T10:33:38.339Z,30.97
2022-10-18T10:36:15.913Z,30.49
2022-10-18T10:38:42.249Z,30.66
2022-10-18T10:41:22.988Z,30.03
2022-10-18T10:43:50.703Z,29.65
2022-10-18T10:46:19.433Z,29.54
2022-10-18T10:49:27.518Z,29.27
2022-10-18T10:51:45.194Z,28.65
2022-10-18T10:54:21.712Z,28.61
2022-10-18T10:57:04.895Z,28.38
2022-10-18T11:02:18.855Z,28.41
2022-10-18T11:04:47.623Z,28.41
2022-10-18T11:07:23.342Z,28.24
2022-10-18T11:10:30.795Z,28.51
2022-10-18T11:13:18.876Z,28.26
2022-10-18T11:15:50.465Z,28.80
2022-10-18T11:18:30.031Z,29.13
2022-10-18T11:21:02.074Z,29.08
2022-10-18T11:23:32.497Z,29.38
2022-10-18T11:26:01.577Z,29.55
2022-10-18T11:29:10.615Z,30.19
2022-10-18T11:31:55.420Z,30.30
2022-10-18T11:34:33.896Z,30.04
2022-10-18T11:37:30.024Z,30.21
2022-10-18T11:40:27.820Z,30.20
2022-10-18T11:43:27.262Z,30.79
2022-10-18T11:46:06.830Z,30.03
2022-10-18T11:49:11.472Z,30.46
2022-10-18T11:52:08.513Z,30.82
2022-10-18T11:54:45.950Z,31.57
2022-10-18T11:57:42.858Z,31.74
2022-10-18T12:00:18.521Z,31.79
2022-10-18T12:03:23.874Z,32.40
2022-10-18T12:05:52.598Z,32.50
2022-10-18T12:08:54.927Z,32.70
2022-10-18T12:11:33.831Z,32.62
2022-10-18T12:14:05.694Z,32.89
2022-10-18T12:17:06.775Z,33.46
2022-10-18T12:19:27.597Z,33.43
2022-10-18T12:21:59.594Z,33.55
2022-10-18T12:24:41.989Z,33.08
2022-10-18T12:27:13.609Z,33.16
2022-10-18T12:29:48.023Z,33.46
2022-10-18T12:32:22.007Z,33.01
2022-10-18T12:34:53.691Z,32.92
2022-10-18T12:37:36.748Z,32.78
2022-10-18T12:40:21.738Z,33.14
2022-10-18T12:42:50.493Z,33.04
2022-10-18T12:45:33.352Z,32.91
2022-10-18T12:48:06.853Z,32.93
2022-10-18T12:50:39.207Z,33.04
2022-10-18T12:53:25.457Z,32.62
2022-10-18T12:55:53.617Z,32.11
2022-10-18T12:58:25.468Z,30.41
2022-10-18T13:01:01.995Z,30.86
2022-10-18T13:03:49.784Z,31.28
2022-10-18T13:06:16.187Z,31.93
2022-10-18T13:08:42.956Z,32.24
2022-10-18T13:11:09.406Z,32.87
2022-10-18T13:13:59.815Z,31.57
2022-10-18T13:16:34.613Z,32.33
2022-10-18T13:19:10.405Z,33.01
2022-10-18T13:21:49.619Z,33.67
2022-10-18T13:25:02.136Z,34.14
2022-10-18T13:28:02.418Z,34.60
2022-10-18T13:30:38.532Z,34.45
2022-10-18T13:33:27.380Z,34.74
2022-10-18T13:35:57.175Z,34.43
2022-10-18T13:38:38.946Z,34.25
2022-10-18T13:41:12.088Z,33.92
2022-10-18T13:43:55.638Z,33.70
2022-10-18T13:46:34.098Z,33.72
2022-10-18T13:49:22.661Z,33.74
2022-10-18T13:52:07.442Z,33.92
2022-10-18T13:55:00.733Z,33.73
2022-10-18T13:57:55.585Z,34.18
2022-10-18T14:00:37.067Z,34.56
2022-10-18T14:03:44.083Z,34.67
2022-10-18T14:06:26.656Z,35.78
2022-10-18T14:09:09.566Z,35.82
2022-10-18T14:12:11.814Z,36.21
2022-10-18T14:14:50.979Z,36.42
2022-10-18T14:17:36.410Z,36.42
2022-10-18T14:20:21.122Z,36.38
2022-10-18T14:23:05.344Z,37.11
2022-10-18T14:25:37.915Z,37.61
2022-10-18T14:28:04.286Z,38.55
2022-10-18T14:30:31.966Z,38.10
2022-10-18T14:33:05.407Z,38.75
2022-10-18T14:35:40.435Z,39.14
2022-10-18T14:38:13.954Z,39.48
2022-10-18T14:40:41.042Z,40.08
2022-10-18T14:43:18.616Z,40.81
2022-10-18T14:45:45.565Z,40.69
2022-10-18T14:48:22.185Z,41.29
2022-10-18T14:51:00.417Z,42.04
2022-10-18T14:53:37.547Z,41.48
2022-10-18T14:56:07.448Z,41.44
2022-10-18T14:58:37.506Z,41.53
2022-10-18T15:01:05.009Z,42.11
2022-10-18T15:03:35.534Z,42.66
2022-10-18T15:06:05.218Z,42.95
2022-10-18T15:08:41.367Z,43.14
2022-10-18T15:11:11.904Z,43.60
2022-10-18T15:14:03.106Z,43.69
2022-10-18T15:16:32.073Z,43.85
2022-10-18T15:19:24.247Z,43.34
2022-10-18T15:25:31.982Z,43.39
2022-10-18T15:28:00.496Z,43.20
2022-10-18T15:30:42.748Z,43.89
2022-10-18T15:33:22.140Z,44.16
2022-10-18T15:35:48.646Z,44.49
2022-10-18T15:38:20.949Z,44.73
2022-10-18T15:40:47.834Z,44.99
2022-10-18T15:43:23.271Z,45.38
2022-10-18T15:45:52.649Z,45.45
2022-10-18T15:48:37.961Z,45.45
2022-10-18T15:51:07.697Z,45.63
2022-10-18T15:53:54.506Z,45.80
2022-10-18T15:56:35.696Z,45.95
2022-10-18T15:59:05.357Z,46.00
2022-10-18T16:01:38.377Z,45.66
2022-10-18T16:04:10.588Z,45.76
2022-10-18T16:06:38.491Z,46.11
2022-10-18T16:09:05.560Z,46.32
2022-10-18T16:11:32.064Z,47.02
2022-10-18T16:14:00.421Z,47.39
2022-10-18T16:16:29.054Z,47.51
2022-10-18T16:18:56.628Z,47.67
2022-10-18T16:21:29.454Z,48.48
2022-10-18T16:23:56.375Z,48.73
2022-10-18T16:26:23.648Z,48.89
2022-10-18T16:28:50.977Z,49.40
2022-10-18T16:31:20.803Z,49.60
2022-10-18T16:33:48.443Z,49.77
2022-10-18T16:36:20.401Z,50.83
2022-10-18T16:38:47.785Z,51.26
2022-10-18T16:41:15.919Z,51.93
2022-10-18T16:43:44.403Z,52.45
2022-10-18T16:46:16.858Z,52.78
2022-10-18T16:48:43.931Z,53.76
2022-10-18T16:51:11.205Z,54.12
2022-10-18T16:53:38.355Z,54.25
2022-10-18T16:56:11.407Z,54.57
2022-10-18T16:58:40.306Z,55.11
2022-10-18T17:01:08.980Z,55.60
2022-10-18T17:03:35.727Z,55.81
2022-10-18T17:06:02.118Z,56.35
2022-10-18T17:08:28.865Z,56.62
2022-10-18T17:10:58.134Z,57.06
2022-10-18T17:13:26.219Z,57.67
2022-10-18T17:15:53.296Z,58.31
2022-10-18T17:18:22.979Z,58.71
2022-10-18T17:20:52.308Z,58.72
2022-10-18T17:23:22.079Z,59.38
2022-10-18T17:26:04.665Z,59.39
2022-10-18T17:28:33.836Z,60.34
2022-10-18T17:31:00.208Z,60.49
2022-10-18T17:33:29.235Z,60.90
2022-10-18T17:35:55.625Z,61.10
2022-10-18T17:38:21.992Z,61.31
2022-10-18T17:40:48.324Z,61.75
2022-10-18T17:43:14.817Z,62.53
2022-10-18T17:45:54.766Z,62.58
2022-10-18T17:48:21.309Z,63.18
2022-10-18T17:50:47.637Z,63.24
2022-10-18T17:53:22.296Z,63.43
2022-10-18T17:55:49.592Z,63.57
2022-10-18T17:58:16.047Z,64.52
2022-10-18T18:00:42.388Z,64.37
2022-10-18T18:03:09.091Z,64.77
2022-10-18T18:05:35.476Z,65.05
2022-10-18T18:08:03.993Z,65.03
2022-10-18T18:10:33.318Z,65.14
2022-10-18T18:13:00.039Z,65.20
2022-10-18T18:15:26.571Z,65.73
2022-10-18T18:17:57.032Z,65.49
2022-10-18T18:20:24.443Z,66.16
2022-10-18T18:22:53.025Z,66.23
2022-10-18T18:25:19.540Z,66.59
2022-10-18T18:27:45.869Z,66.75
2022-10-18T18:30:12.430Z,66.83
2022-10-18T18:32:38.785Z,67.81
2022-10-18T18:35:05.642Z,67.94
2022-10-18T18:37:32.050Z,68.11
2022-10-18T18:39:58.417Z,68.41
2022-10-18T18:42:27.974Z,68.27
2022-10-18T18:45:01.721Z,68.30
2022-10-18T18:47:28.216Z,68.66
2022-10-18T18:49:54.972Z,68.94
2022-10-18T18:52:24.064Z,68.79
2022-10-18T18:54:50.431Z,69.27
2022-10-18T18:57:16.908Z,69.61
2022-10-18T18:59:43.256Z,69.69
2022-10-18T19:02:12.491Z,69.00
2022-10-18T19:04:41.181Z,69.50
2022-10-18T19:07:07.685Z,68.98
2022-10-18T19:09:37.800Z,69.55
2022-10-18T19:12:04.809Z,69.71
2022-10-18T19:14:31.229Z,69.89
2022-10-18T19:17:01.543Z,69.91
2022-10-18T19:19:30.191Z,70.25
2022-10-18T19:21:58.672Z,70.52
2022-10-18T19:24:27.902Z,70.24
2022-10-18T19:27:03.402Z,70.44
2022-10-18T19:29:32.405Z,70.57
2022-10-18T19:32:01.544Z,70.71
2022-10-18T19:34:29.081Z,70.75
2022-10-18T19:36:56.072Z,70.31
2022-10-18T19:39:33.420Z,70.04
2022-10-18T19:42:03.412Z,69.79
2022-10-18T19:44:32.192Z,69.61
2022-10-18T19:46:59.004Z,69.44
2022-10-18T19:49:27.878Z,69.38
2022-10-18T19:51:55.013Z,69.51
2022-10-18T19:54:21.574Z,70.01
2022-10-18T19:56:48.194Z,70.74
2022-10-18T19:59:16.373Z,70.96
2022-10-18T20:01:43.727Z,70.95
2022-10-18T20:04:11.961Z,70.51
2022-10-18T20:06:39.312Z,70.18
2022-10-18T20:09:06.854Z,70.27
2022-10-18T20:11:33.481Z,70.21
2022-10-18T20:13:59.837Z,70.17
2022-10-18T20:16:29.238Z,70.64
2022-10-18T20:18:57.462Z,71.20
2022-10-18T20:21:24.764Z,71.40
2022-10-18T20:23:51.097Z,71.66
2022-10-18T20:26:20.840Z,71.52
2022-10-18T20:28:49.380Z,71.95
2022-10-18T20:31:18.971Z,72.16
2022-10-18T20:33:46.956Z,72.16
2022-10-18T20:36:16.273Z,72.04
2022-10-18T20:38:45.323Z,72.13
2022-10-18T20:41:17.761Z,72.24
2022-10-18T20:43:44.692Z,72.77
2022-10-18T20:46:11.143Z,72.87
2022-10-18T20:48:40.458Z,72.20
2022-10-18T20:51:09.790Z,71.95
2022-10-18T20:53:41.502Z,71.68
2022-10-18T20:56:13.803Z,71.50
2022-10-18T20:58:42.075Z,71.59
2022-10-18T21:01:17.768Z,71.35
2022-10-18T21:03:46.211Z,71.39
2022-10-18T21:06:15.633Z,71.37
2022-10-18T21:08:42.875Z,71.33
2022-10-18T21:11:10.038Z,71.32
2022-10-18T21:13:37.172Z,71.58
2022-10-18T21:16:07.244Z,71.72
2022-10-18T21:18:35.885Z,71.60
2022-10-18T21:21:31.799Z,71.70
2022-10-18T21:24:02.424Z,71.81
2022-10-18T21:26:31.862Z,72.10
2022-10-18T21:28:59.348Z,72.27
2022-10-18T21:31:29.127Z,72.23
2022-10-18T21:33:58.702Z,72.17
2022-10-18T21:36:27.035Z,72.37
2022-10-18T21:38:53.569Z,73.12
2022-10-18T21:41:22.809Z,73.72
2022-10-18T21:43:54.519Z,74.29
2022-10-18T21:46:22.697Z,74.47
2022-10-18T21:48:51.699Z,74.61
2022-10-18T21:51:19.937Z,74.71
2022-10-18T21:53:49.382Z,74.89
2022-10-18T21:56:18.551Z,75.37
2022-10-18T21:58:47.340Z,75.18
2022-10-18T22:01:25.688Z,74.85
2022-10-18T22:03:54.256Z,74.71
2022-10-18T22:06:21.481Z,74.69
2022-10-18T22:08:59.266Z,74.77
2022-10-18T22:11:32.203Z,74.69
2022-10-18T22:13:59.163Z,74.43
2022-10-18T22:16:26.000Z,74.37
2022-10-18T22:18:56.499Z,74.20
2022-10-18T22:21:26.393Z,73.94
2022-10-18T22:23:54.437Z,73.85
2022-10-18T22:26:29.053Z,74.11
2022-10-18T22:29:17.604Z,74.23
2022-10-18T22:31:53.866Z,74.53
2022-10-18T22:34:23.525Z,74.49
2022-10-18T22:36:50.544Z,74.85
2022-10-18T22:39:17.093Z,74.68
2022-10-18T22:41:44.231Z,75.06
2022-10-18T22:44:12.423Z,74.79
2022-10-18T22:46:39.566Z,74.79
2022-10-18T22:49:05.876Z,74.97
2022-10-18T22:51:32.750Z,75.00
2022-10-18T22:53:59.235Z,74.54
2022-10-18T22:56:25.653Z,74.17
2022-10-18T22:58:52.712Z,73.94
2022-10-18T23:01:22.463Z,73.88
2022-10-18T23:03:56.768Z,73.82
2022-10-18T23:06:34.791Z,73.89
2022-10-18T23:09:05.039Z,73.58
2022-10-18T23:11:32.209Z,73.88
2022-10-18T23:13:58.609Z,74.19
2022-10-18T23:16:25.148Z,74.31
2022-10-18T23:18:53.728Z,74.68
2022-10-18T23:21:21.129Z,74.68
2022-10-18T23:23:47.611Z,74.43
2022-10-18T23:26:16.087Z,74.71
2022-10-18T23:28:44.491Z,74.52
2022-10-18T23:31:12.800Z,74.71
2022-10-18T23:33:40.179Z,74.81
2022-10-18T23:36:07.974Z,74.58
2022-10-18T23:38:34.847Z,74.64
2022-10-18T23:41:01.154Z,74.89
2022-10-18T23:43:27.559Z,75.03
2022-10-18T23:45:56.683Z,75.71
2022-10-18T23:48:23.336Z,75.37
2022-10-18T23:50:49.805Z,75.40
2022-10-18T23:53:16.320Z,75.73
2022-10-18T23:56:00.252Z,75.60
2022-10-18T23:58:28.129Z,75.34
